Time;durP1;ratioP1;P1;durP2;ratioP2;P2;SDS_P1;SDS_P2;PMS_P1;PMS_P2;Temp;Humidity;BMP_temperature;BMP_pressure;BME280_temperature;BME280_humidity;BME280_pressure;Samples;Min_cycle;Max_cycle;Signal;HPM_P1;HPM_P2
2021/01/16 00:01:19;;;;;;;45.33;16.00;;;;;;;-10.81;83.14;99183.47;2250612;78;21579;-70
2021/01/16 00:04:21;;;;;;;48.90;18.45;;;;;;;-10.90;83.55;99176.87;2252581;78;21694;-66
2021/01/16 00:07:22;;;;;;;50.60;20.75;;;;;;;-10.89;83.66;99174.77;2246872;79;21269;-64
2021/01/16 00:10:23;;;;;;;54.13;19.10;;;;;;;-10.77;83.55;99170.87;2250839;79;21285;-64
2021/01/16 00:13:24;;;;;;;46.75;15.65;;;;;;;-10.69;83.43;99176.63;2251393;78;21322;-63
2021/01/16 00:16:26;;;;;;;42.35;15.53;;;;;;;-10.71;83.74;99171.93;2231693;78;21268;-63
2021/01/16 00:19:28;;;;;;;43.90;14.65;;;;;;;-10.69;83.87;99177.05;2249753;79;21728;-64
2021/01/16 00:22:29;;;;;;;44.30;14.58;;;;;;;-10.73;83.73;99170.16;2248311;78;21292;-64
2021/01/16 00:25:30;;;;;;;46.02;14.20;;;;;;;-10.74;83.74;99173.53;2248168;79;21150;-66
2021/01/16 00:28:32;;;;;;;40.05;15.50;;;;;;;-10.77;83.63;99174.30;2247337;78;21276;-63
2021/01/16 00:31:34;;;;;;;45.52;15.15;;;;;;;-10.80;83.21;99173.79;2248321;79;21171;-66
2021/01/16 00:34:35;;;;;;;44.18;16.65;;;;;;;-10.76;83.55;99181.48;2249981;78;21149;-69
2021/01/16 00:37:36;;;;;;;49.20;15.72;;;;;;;-10.76;83.13;99174.73;2255469;78;21718;-68
2021/01/16 00:40:37;;;;;;;44.63;15.03;;;;;;;-10.71;82.58;99176.16;2251635;78;21701;-63
2021/01/16 00:43:39;;;;;;;38.77;11.77;;;;;;;-10.85;82.40;99175.31;2254555;78;21123;-64
2021/01/16 00:46:40;;;;;;;43.75;14.53;;;;;;;-10.85;82.40;99175.31;2247328;78;21675;-63
2021/01/16 00:49:41;;;;;;;43.35;14.73;;;;;;;-10.78;82.30;99191.58;2244672;79;21131;-66
2021/01/16 00:52:43;;;;;;;38.90;13.13;;;;;;;-10.73;82.45;99180.30;2249277;78;21261;-63
2021/01/16 00:55:44;;;;;;;33.73;12.13;;;;;;;-10.71;82.39;99181.22;2249106;78;21723;-64
2021/01/16 00:58:45;;;;;;;43.10;13.50;;;;;;;-10.71;82.46;99174.89;2252278;78;21266;-64
2021/01/16 01:01:47;;;;;;;44.90;14.85;;;;;;;-10.60;82.66;99174.80;2253802;79;21277;-63
2021/01/16 01:04:49;;;;;;;39.80;12.73;;;;;;;-10.40;82.73;99169.42;2246003;79;21266;-63
2021/01/16 01:07:50;;;;;;;46.55;14.95;;;;;;;-10.12;82.61;99157.91;2254603;78;21266;-63
2021/01/16 01:10:51;;;;;;;50.85;16.05;;;;;;;-9.93;81.84;99163.09;2249451;78;21796;-64
2021/01/16 01:13:52;;;;;;;46.05;15.08;;;;;;;-9.89;81.28;99169.52;2246666;78;21578;-63
2021/01/16 01:16:53;;;;;;;54.15;17.60;;;;;;;-9.85;81.52;99171.33;2245355;78;21273;-64
2021/01/16 01:19:55;;;;;;;49.20;17.35;;;;;;;-9.67;81.06;99170.92;2248637;78;21709;-63
2021/01/16 01:22:56;;;;;;;56.00;18.55;;;;;;;-9.61;80.75;99163.45;2249669;78;21554;-63
2021/01/16 01:25:57;;;;;;;58.30;18.52;;;;;;;-9.48;80.66;99166.77;2251037;78;21277;-65
2021/01/16 01:28:58;;;;;;;54.77;18.20;;;;;;;-9.42;80.39;99160.98;2249910;78;21308;-63
2021/01/16 01:32:00;;;;;;;49.20;17.40;;;;;;;-9.32;80.41;99161.64;2248103;79;21578;-66
2021/01/16 01:35:01;;;;;;;54.42;18.82;;;;;;;-9.21;80.47;99155.53;2250489;78;21999;-67
2021/01/16 01:38:02;;;;;;;57.67;18.65;;;;;;;-9.09;80.23;99159.64;2247672;78;21257;-64
2021/01/16 01:41:03;;;;;;;65.08;20.77;;;;;;;-9.04;79.98;99163.55;2247476;78;21706;-63
2021/01/16 01:44:04;;;;;;;61.92;20.20;;;;;;;-8.96;80.00;99162.47;2256974;79;21302;-64
2021/01/16 01:47:06;;;;;;;47.37;15.10;;;;;;;-8.95;79.86;99157.81;2255284;78;21579;-63
2021/01/16 01:50:07;;;;;;;64.42;20.00;;;;;;;-8.92;79.95;99160.42;2255023;79;21285;-66
2021/01/16 01:53:08;;;;;;;36.87;13.37;;;;;;;-8.86;79.98;99158.42;2254396;78;21729;-64
2021/01/16 01:56:09;;;;;;;50.35;17.27;;;;;;;-8.77;80.08;99151.02;2248154;79;21683;-64
2021/01/16 01:59:11;;;;;;;64.17;20.45;;;;;;;-8.75;79.85;99150.23;2250651;78;21277;-65
2021/01/16 02:02:12;;;;;;;69.65;22.45;;;;;;;-8.66;79.79;99161.41;2250417;79;21146;-64
2021/01/16 02:05:13;;;;;;;67.62;22.27;;;;;;;-8.61;79.70;99155.59;2249535;78;21282;-64
2021/01/16 02:08:14;;;;;;;71.30;22.62;;;;;;;-8.48;79.50;99141.87;2244916;78;21340;-70
2021/01/16 02:11:15;;;;;;;64.05;21.25;;;;;;;-8.48;79.16;99144.41;2248927;78;21736;-69
2021/01/16 02:14:17;;;;;;;71.33;21.80;;;;;;;-8.54;79.06;99129.88;2249720;79;21586;-71
2021/01/16 02:17:18;;;;;;;76.12;23.20;;;;;;;-8.51;79.13;99131.20;2218999;79;21293;-72
2021/01/16 02:20:19;;;;;;;53.35;16.85;;;;;;;-8.49;79.25;99124.48;2248563;79;21600;-72
2021/01/16 02:23:21;;;;;;;65.22;21.00;;;;;;;-8.41;79.54;99122.05;2248778;78;21115;-67
2021/01/16 02:26:22;;;;;;;79.75;25.68;;;;;;;-8.33;79.47;99124.34;2256336;79;21154;-64
2021/01/16 02:29:23;;;;;;;68.52;21.80;;;;;;;-8.20;79.66;99124.16;2245391;78;21256;-65
2021/01/16 02:32:24;;;;;;;69.77;23.60;;;;;;;-7.88;79.95;99122.62;2251379;79;21697;-64
2021/01/16 02:35:25;;;;;;;71.77;23.38;;;;;;;-7.59;79.72;99127.36;2246409;78;21709;-72
2021/01/16 02:38:27;;;;;;;69.62;22.62;;;;;;;-7.45;79.16;99128.44;2246638;78;21288;-72
2021/01/16 02:41:28;;;;;;;74.10;23.12;;;;;;;-7.50;78.61;99129.64;2254393;79;21290;-66
2021/01/16 02:44:29;;;;;;;66.25;22.87;;;;;;;-7.52;79.09;99131.30;2226637;79;21087;-71
2021/01/16 02:47:30;;;;;;;64.00;23.03;;;;;;;-7.41;78.99;99126.78;2248811;78;21574;-72
2021/01/16 02:50:32;;;;;;;65.70;22.83;;;;;;;-7.37;79.22;99133.65;2247840;78;21659;-71
2021/01/16 02:53:33;;;;;;;70.40;23.07;;;;;;;-7.24;78.85;99132.15;2251177;79;21591;-68
2021/01/16 02:56:34;;;;;;;82.92;28.02;;;;;;;-7.41;78.33;99137.85;2250145;78;21162;-65
2021/01/16 02:59:35;;;;;;;64.87;24.12;;;;;;;-7.68;78.46;99137.82;2250009;78;21721;-65
2021/01/16 03:02:37;;;;;;;63.10;22.30;;;;;;;-7.84;78.78;99143.06;2247815;78;21149;-64
2021/01/16 03:05:38;;;;;;;60.67;21.48;;;;;;;-7.91;79.03;99132.33;2250477;78;21716;-64
2021/01/16 03:08:39;;;;;;;58.83;18.95;;;;;;;-8.06;78.94;99133.31;2254788;78;21685;-67
2021/01/16 03:11:40;;;;;;;51.85;18.07;;;;;;;-8.20;79.54;99122.89;2244825;78;21570;-64
2021/01/16 03:14:41;;;;;;;52.98;18.73;;;;;;;-8.16;79.92;99119.97;2247469;79;21268;-64
2021/01/16 03:17:42;;;;;;;53.92;18.40;;;;;;;-8.15;80.07;99114.06;2247847;78;21678;-64
2021/01/16 03:20:44;;;;;;;54.07;19.53;;;;;;;-8.16;80.17;99106.81;2244851;78;21602;-64
2021/01/16 03:23:45;;;;;;;58.30;19.42;;;;;;;-8.14;80.20;99111.55;2250609;78;21260;-64
2021/01/16 03:26:47;;;;;;;68.40;21.75;;;;;;;-8.15;80.41;99098.78;2249542;79;21131;-64
2021/01/16 03:29:48;;;;;;;64.22;21.52;;;;;;;-8.24;80.49;99105.41;2251063;78;21268;-64
2021/01/16 03:32:49;;;;;;;46.92;15.78;;;;;;;-8.24;80.80;99104.56;2254506;79;21140;-64
2021/01/16 03:35:50;;;;;;;47.70;15.80;;;;;;;-8.23;81.26;99104.59;2245961;78;21685;-65
2021/01/16 03:38:51;;;;;;;49.73;17.75;;;;;;;-8.25;81.34;99110.05;2254303;78;21266;-64
2021/01/16 03:41:53;;;;;;;51.50;18.77;;;;;;;-8.24;81.32;99109.66;2248286;78;21256;-64
2021/01/16 03:44:54;;;;;;;59.67;18.92;;;;;;;-8.16;81.29;99110.64;2255433;78;21269;-64
2021/01/16 03:47:55;;;;;;;50.63;17.35;;;;;;;-8.07;81.14;99109.98;2250552;78;21282;-64
2021/01/16 03:50:56;;;;;;;36.10;11.37;;;;;;;-7.96;81.03;99111.43;2251621;77;21278;-64
2021/01/16 03:53:58;;;;;;;40.28;12.98;;;;;;;-7.84;80.96;99116.33;2246708;78;21281;-64
2021/01/16 03:56:59;;;;;;;29.37;9.63;;;;;;;-7.79;80.64;99114.28;2246966;78;21717;-64
2021/01/16 04:00:00;;;;;;;37.30;11.93;;;;;;;-7.87;80.88;99107.79;2246556;78;21570;-64
2021/01/16 04:03:01;;;;;;;35.95;11.75;;;;;;;-7.98;81.24;99113.10;2246943;78;21301;-64
2021/01/16 04:06:02;;;;;;;34.23;11.22;;;;;;;-8.03;81.67;99116.42;2252036;78;21147;-64
2021/01/16 04:09:03;;;;;;;31.17;10.70;;;;;;;-8.06;82.01;99111.67;2250672;78;21265;-64
2021/01/16 04:12:05;;;;;;;30.92;10.58;;;;;;;-8.09;82.33;99111.19;2246871;79;21277;-65
2021/01/16 04:15:06;;;;;;;33.08;10.00;;;;;;;-8.10;82.79;99109.89;2245209;78;21729;-65
2021/01/16 04:18:07;;;;;;;33.45;10.68;;;;;;;-8.11;83.36;99114.14;2245533;78;21281;-64
2021/01/16 04:21:08;;;;;;;29.00;9.75;;;;;;;-8.06;83.07;99106.58;2246594;78;21159;-66
2021/01/16 04:24:09;;;;;;;29.92;9.70;;;;;;;-8.05;83.33;99106.61;2254613;78;21107;-68
2021/01/16 04:27:10;;;;;;;29.18;8.70;;;;;;;-7.99;83.23;99094.83;2249699;78;21285;-73
2021/01/16 04:30:11;;;;;;;30.55;10.25;;;;;;;-7.94;83.21;99093.20;2253869;78;21594;-71
2021/01/16 04:33:13;;;;;;;34.65;11.15;;;;;;;-7.91;83.38;99090.73;2247998;78;21725;-73
2021/01/16 04:36:14;;;;;;;34.80;10.18;;;;;;;-7.84;83.20;99089.58;2248219;78;21302;-72
2021/01/16 04:39:16;;;;;;;33.78;10.35;;;;;;;-7.79;83.42;99087.11;2255041;78;21274;-65
2021/01/16 04:42:17;;;;;;;;;;;;;;;-7.74;83.25;99083.36;2238772;79;21299;-64
2021/01/16 04:45:19;;;;;;;33.90;11.78;;;;;;;-7.72;83.22;99082.98;2248709;79;20864;-64
2021/01/16 04:48:20;;;;;;;36.45;11.30;;;;;;;-7.70;83.44;99085.13;2248680;78;21138;-64
2021/01/16 04:51:21;;;;;;;40.10;11.40;;;;;;;-7.68;83.50;99080.50;2250332;78;21347;-64
2021/01/16 04:54:22;;;;;;;38.98;11.97;;;;;;;-7.66;83.85;99080.52;2248327;79;21279;-64
2021/01/16 04:57:24;;;;;;;39.55;13.85;;;;;;;-7.63;84.04;99075.91;2250832;78;21207;-64
2021/01/16 05:00:25;;;;;;;35.10;11.65;;;;;;;-7.58;83.85;99070.48;2255562;79;21111;-64
2021/01/16 05:03:26;;;;;;;36.55;10.10;;;;;;;-7.55;83.93;99073.91;2251121;79;21693;-66
2021/01/16 05:06:27;;;;;;;33.25;10.43;;;;;;;-7.52;83.91;99073.11;2248475;78;21111;-68
2021/01/16 05:09:28;;;;;;;34.65;10.88;;;;;;;-7.52;84.09;99070.56;2254137;79;21135;-67
2021/01/16 05:12:30;;;;;;;34.80;12.03;;;;;;;-7.50;84.11;99076.53;2246888;79;21724;-68
2021/01/16 05:15:31;;;;;;;31.60;10.83;;;;;;;-7.46;84.13;99068.53;2248671;79;21288;-66
2021/01/16 05:18:35;;;;;;;37.88;11.68;;;;;;;-7.46;84.22;99068.53;2247095;79;21587;-65
2021/01/16 05:21:36;;;;;;;33.33;11.40;;;;;;;-7.43;84.23;99060.92;2254373;78;21320;-67
2021/01/16 05:24:37;;;;;;;32.25;10.90;;;;;;;-7.39;84.43;99069.91;2252685;78;21111;-65
2021/01/16 05:27:39;;;;;;;32.48;9.23;;;;;;;-7.35;84.51;99062.75;2250808;79;21726;-68
2021/01/16 05:30:40;;;;;;;32.77;10.73;;;;;;;-7.32;84.97;99067.05;2249385;79;21599;-67
2021/01/16 05:33:41;;;;;;;31.65;10.20;;;;;;;-7.31;84.53;99055.59;2251121;79;21253;-64
2021/01/16 05:36:42;;;;;;;33.85;10.25;;;;;;;-7.27;84.83;99058.18;2246280;78;21155;-66
2021/01/16 05:39:43;;;;;;;33.15;10.32;;;;;;;-7.26;85.10;99059.91;2250530;78;21265;-65
2021/01/16 05:42:45;;;;;;;23.57;7.83;;;;;;;-7.25;84.83;99060.35;2232201;79;21265;-64
2021/01/16 05:45:46;;;;;;;32.95;9.65;;;;;;;-7.25;85.07;99054.83;2250352;78;21132;-64
2021/01/16 05:48:47;;;;;;;32.50;10.18;;;;;;;-7.23;85.33;99058.67;2250247;79;21155;-65
2021/01/16 05:51:48;;;;;;;29.55;10.10;;;;;;;-7.21;85.51;99059.53;2255024;79;21265;-65
2021/01/16 05:54:50;;;;;;;34.98;10.58;;;;;;;-7.18;85.32;99062.16;2248795;78;21103;-64
2021/01/16 05:57:51;;;;;;;34.65;11.12;;;;;;;-7.17;85.84;99062.57;2255133;78;21700;-64
2021/01/16 06:00:52;;;;;;;34.27;11.60;;;;;;;-7.14;85.64;99062.21;2254149;79;21270;-64
2021/01/16 06:03:53;;;;;;;34.08;11.20;;;;;;;-7.10;85.38;99063.52;2246797;78;21134;-65
2021/01/16 06:06:54;;;;;;;35.38;12.25;;;;;;;-7.09;85.41;99058.44;2248927;78;21183;-64
2021/01/16 06:09:55;;;;;;;35.68;13.20;;;;;;;-7.06;85.73;99055.92;2250936;78;21131;-64
2021/01/16 06:12:56;;;;;;;30.92;10.78;;;;;;;-7.01;85.72;99053.43;2244695;79;21269;-64
2021/01/16 06:15:58;;;;;;;34.98;11.03;;;;;;;-6.97;85.59;99044.59;2244953;78;21127;-65
2021/01/16 06:18:59;;;;;;;37.93;12.40;;;;;;;-6.97;85.57;99042.05;2248350;78;21250;-66
2021/01/16 06:22:00;;;;;;;37.45;11.35;;;;;;;-6.95;85.22;99031.86;2254639;78;21273;-65
2021/01/16 06:25:01;;;;;;;33.88;11.73;;;;;;;-6.91;85.32;99028.52;2250442;78;21143;-65
2021/01/16 06:28:02;;;;;;;36.00;11.60;;;;;;;-6.89;85.16;99025.98;2251401;78;21269;-64
2021/01/16 06:31:03;;;;;;;35.25;12.37;;;;;;;-6.87;85.22;99030.23;2245190;79;21272;-64
2021/01/16 06:34:05;;;;;;;38.02;13.40;;;;;;;-6.89;85.50;99036.18;2246777;78;21693;-67
2021/01/16 06:37:06;;;;;;;34.48;11.38;;;;;;;-6.89;85.58;99050.21;2247018;78;21278;-70
2021/01/16 06:40:07;;;;;;;34.98;12.55;;;;;;;-6.84;85.67;99047.28;2254104;79;21565;-65
2021/01/16 06:43:10;;;;;;;35.65;11.60;;;;;;;-6.82;85.41;99048.17;2244818;79;21276;-71
2021/01/16 06:46:12;;;;;;;35.15;11.85;;;;;;;-6.81;85.64;99043.48;2246979;78;21107;-69
2021/01/16 06:49:13;;;;;;;33.60;11.97;;;;;;;-6.79;85.67;99044.38;2254344;78;21689;-68
2021/01/16 06:52:15;;;;;;;32.35;11.45;;;;;;;-6.74;85.62;99041.45;2255461;79;21278;-70
2021/01/16 06:55:16;;;;;;;36.83;13.25;;;;;;;-6.69;85.40;99046.20;2252192;78;21289;-70
2021/01/16 06:58:17;;;;;;;33.33;11.83;;;;;;;-6.61;85.11;99050.11;2239993;78;21139;-67
2021/01/16 07:01:18;;;;;;;37.87;12.70;;;;;;;-6.53;85.18;99043.83;2250972;78;21309;-69
2021/01/16 07:04:20;;;;;;;32.05;11.95;;;;;;;-6.46;85.14;99040.51;2229927;79;21253;-70
2021/01/16 07:07:21;;;;;;;41.77;13.87;;;;;;;-6.40;85.48;99056.31;2247371;78;21779;-65
2021/01/16 07:10:22;;;;;;;37.13;12.35;;;;;;;-6.32;85.06;99044.46;2247781;78;21110;-65
2021/01/16 07:13:24;;;;;;;38.47;13.30;;;;;;;-6.29;85.14;99041.53;2257068;78;21580;-64
2021/01/16 07:16:25;;;;;;;40.83;13.83;;;;;;;-6.20;84.92;99044.59;2246493;78;21705;-64
2021/01/16 07:19:27;;;;;;;35.48;12.95;;;;;;;-6.11;85.02;99043.83;2221060;78;21268;-65
2021/01/16 07:22:28;;;;;;;39.20;14.83;;;;;;;-6.05;85.02;99046.44;2246247;78;21262;-67
2021/01/16 07:25:29;;;;;;;38.83;13.48;;;;;;;-5.96;84.76;99049.06;2249200;78;21258;-65
2021/01/16 07:28:31;;;;;;;36.63;13.48;;;;;;;-5.84;84.56;99046.18;2247179;79;21261;-72
2021/01/16 07:31:32;;;;;;;35.75;13.08;;;;;;;-5.72;84.50;99041.16;2245011;78;21593;-68
2021/01/16 07:34:33;;;;;;;36.48;13.78;;;;;;;-5.55;84.14;99042.56;2250645;78;21250;-65
2021/01/16 07:37:34;;;;;;;36.28;14.13;;;;;;;-5.44;83.88;99042.22;2252761;79;21147;-66
2021/01/16 07:40:35;;;;;;;35.52;13.95;;;;;;;-5.28;83.48;99052.12;2250696;79;21273;-65
2021/01/16 07:43:36;;;;;;;34.70;14.07;;;;;;;-5.15;83.17;99040.27;2254147;79;21272;-65
2021/01/16 07:46:39;;;;;;;37.45;14.10;;;;;;;-4.96;82.79;99042.93;2251016;79;21108;-65
2021/01/16 07:49:41;;;;;;;35.10;14.38;;;;;;;-4.79;82.32;99038.73;2247652;78;21292;-65
2021/01/16 07:52:42;;;;;;;34.25;14.00;;;;;;;-4.60;82.28;99042.66;2245089;78;21238;-65
2021/01/16 07:55:44;;;;;;;37.25;13.70;;;;;;;-4.45;81.59;99038.88;2254494;78;21718;-65
2021/01/16 07:58:49;;;;;;;34.27;14.03;;;;;;;-4.41;81.33;99040.59;2249795;78;21257;-65
2021/01/16 08:01:48;;;;;;;32.85;12.80;;;;;;;-4.43;81.44;99043.56;2246476;78;21252;-66
2021/01/16 08:04:50;;;;;;;30.65;12.10;;;;;;;-4.46;81.50;99038.88;2252771;79;21289;-65
2021/01/16 08:07:51;;;;;;;35.70;13.20;;;;;;;-4.50;81.53;99039.27;2255165;78;21736;-65
2021/01/16 08:10:52;;;;;;;35.03;12.98;;;;;;;-4.46;81.70;99043.99;2252371;78;21697;-66
2021/01/16 08:13:54;;;;;;;34.58;12.73;;;;;;;-4.38;81.56;99044.88;2244852;78;21609;-65
2021/01/16 08:16:55;;;;;;;30.75;11.85;;;;;;;-4.26;81.31;99044.05;2247404;78;21779;-67
2021/01/16 08:19:59;;;;;;;33.65;12.47;;;;;;;-4.15;80.95;99043.66;2254848;78;21642;-65
2021/01/16 08:23:00;;;;;;;33.67;13.53;;;;;;;-4.03;80.76;99045.37;2250535;79;21131;-71
2021/01/16 08:26:02;;;;;;;38.88;14.28;;;;;;;-3.95;80.26;99048.81;2252328;78;21264;-71
2021/01/16 08:29:03;;;;;;;31.25;12.37;;;;;;;-3.90;80.29;99046.23;2254776;78;21158;-72
2021/01/16 08:32:07;;;;;;;34.03;12.70;;;;;;;-3.84;80.04;99048.36;2250792;78;21589;-73
2021/01/16 08:35:07;;;;;;;29.72;11.50;;;;;;;-3.83;79.86;99051.36;2252455;78;21171;-71
2021/01/16 08:38:08;;;;;;;31.93;11.30;;;;;;;-3.88;79.76;99046.67;2246981;78;21285;-65
2021/01/16 08:41:10;;;;;;;29.48;11.80;;;;;;;-3.89;80.11;99046.23;2256382;78;21713;-72
2021/01/16 08:44:11;;;;;;;30.95;12.43;;;;;;;-3.89;80.41;99043.67;2236161;79;21282;-65
2021/01/16 08:47:13;;;;;;;31.17;12.05;;;;;;;-3.87;80.28;99041.95;2248993;78;21265;-65
2021/01/16 08:50:14;;;;;;;30.55;11.30;;;;;;;-3.75;80.55;99046.26;2249522;78;21308;-68
2021/01/16 08:53:15;;;;;;;31.10;12.33;;;;;;;-3.62;79.73;99047.11;2249844;78;21282;-70
2021/01/16 08:56:16;;;;;;;29.65;11.97;;;;;;;-3.51;79.62;99045.81;2249932;78;21720;-68
2021/01/16 08:59:18;;;;;;;32.00;12.88;;;;;;;-3.31;79.33;99043.23;2245816;78;21372;-70
2021/01/16 09:02:19;;;;;;;32.38;12.30;;;;;;;-3.02;79.17;99029.04;2250953;78;21273;-65
2021/01/16 09:05:20;;;;;;;35.20;13.68;;;;;;;-2.64;77.61;99036.20;2258184;79;21202;-66
2021/01/16 09:08:21;;;;;;;34.50;14.23;;;;;;;-2.23;77.88;99020.98;2255597;79;21289;-66
2021/01/16 09:11:23;;;;;;;30.45;12.35;;;;;;;-2.03;75.44;99025.16;2249679;79;21258;-66
2021/01/16 09:14:24;;;;;;;32.23;13.03;;;;;;;-2.17;75.00;99024.83;2256391;78;21649;-66
2021/01/16 09:17:25;;;;;;;32.80;13.32;;;;;;;-2.15;76.16;99020.97;2251559;78;21270;-66
2021/01/16 09:20:27;;;;;;;30.57;12.63;;;;;;;-2.19;75.59;99020.11;2253568;78;21178;-65
2021/01/16 09:23:28;;;;;;;28.80;12.30;;;;;;;-2.33;75.82;99021.50;2253172;79;21293;-70
2021/01/16 09:26:29;;;;;;;29.80;12.33;;;;;;;-2.39;75.69;99018.95;2247433;78;21597;-65
2021/01/16 09:29:30;;;;;;;32.35;11.65;;;;;;;-2.39;75.36;99018.10;2257417;78;21175;-65
2021/01/16 09:32:32;;;;;;;31.50;11.90;;;;;;;-2.28;75.41;99006.05;2250664;79;21154;-66
2021/01/16 09:35:33;;;;;;;30.25;12.88;;;;;;;-2.21;75.60;98999.13;2253141;79;21154;-66
2021/01/16 09:38:34;;;;;;;35.05;13.98;;;;;;;-2.03;76.14;98994.31;2255806;78;21320;-67
2021/01/16 09:41:38;;;;;;;33.35;13.15;;;;;;;-1.86;75.21;98992.91;2249915;78;21131;-65
2021/01/16 09:44:39;;;;;;;33.15;13.75;;;;;;;-1.78;74.87;98994.95;2251361;79;21277;-66
2021/01/16 09:47:40;;;;;;;34.70;13.05;;;;;;;-1.81;75.36;98986.86;2256343;78;21281;-68
2021/01/16 09:50:42;;;;;;;31.40;12.98;;;;;;;-2.01;75.54;98981.88;2249375;78;21741;-67
2021/01/16 09:53:43;;;;;;;34.15;14.70;;;;;;;-2.25;75.85;98986.75;2256925;79;21575;-67
2021/01/16 09:56:44;;;;;;;35.80;14.78;;;;;;;-2.37;76.79;98982.55;2251279;79;21613;-69
2021/01/16 09:59:46;;;;;;;34.15;14.58;;;;;;;-2.36;76.89;98984.68;2248512;78;21135;-66
2021/01/16 10:02:47;;;;;;;37.53;15.95;;;;;;;-2.47;77.20;98984.73;2254069;79;21678;-67
2021/01/16 10:05:50;;;;;;;35.35;13.60;;;;;;;-2.62;77.26;98986.52;2256931;79;21579;-66
2021/01/16 10:08:51;;;;;;;33.50;14.07;;;;;;;-2.75;77.28;98989.17;2253120;78;21257;-67
2021/01/16 10:11:53;;;;;;;32.45;13.58;;;;;;;-2.79;77.88;98979.33;2245205;78;21273;-68
2021/01/16 10:14:54;;;;;;;32.23;12.28;;;;;;;-2.75;77.44;98980.19;2252207;78;21622;-66
2021/01/16 10:17:55;;;;;;;32.03;12.80;;;;;;;-2.57;77.29;98975.38;2246768;78;21131;-66
2021/01/16 10:20:57;;;;;;;31.93;12.73;;;;;;;-2.39;77.00;98968.84;2251363;78;21246;-66
2021/01/16 10:23:58;;;;;;;30.27;12.43;;;;;;;-2.38;76.62;98965.42;2252162;78;21550;-68
2021/01/16 10:27:01;;;;;;;33.40;13.30;;;;;;;-2.39;76.47;98955.16;2248219;78;21147;-69
2021/01/16 10:30:02;;;;;;;31.95;12.37;;;;;;;-2.37;76.53;98946.58;2256706;78;21325;-69
2021/01/16 10:33:03;;;;;;;30.75;13.68;;;;;;;-2.39;76.47;98946.17;2260316;78;21329;-70
2021/01/16 10:36:04;;;;;;;33.78;13.00;;;;;;;-2.39;76.38;98949.58;2244811;79;21166;-68
2021/01/16 10:39:06;;;;;;;30.68;11.83;;;;;;;-2.38;75.96;98949.17;2267731;78;21182;-68
2021/01/16 10:42:07;;;;;;;30.27;12.90;;;;;;;-2.35;75.38;98952.99;2263449;78;21281;-72
2021/01/16 10:45:08;;;;;;;29.98;12.47;;;;;;;-2.28;75.43;98949.52;2248408;79;21303;-65
2021/01/16 10:48:09;;;;;;;30.62;13.05;;;;;;;-2.25;75.50;98931.50;2269423;78;21281;-73
2021/01/16 10:51:11;;;;;;;33.50;14.10;;;;;;;-2.25;75.13;98925.08;2248470;79;21208;-69
2021/01/16 10:54:12;;;;;;;30.30;11.95;;;;;;;-2.11;74.74;98919.40;2263034;78;21264;-68
2021/01/16 10:57:13;;;;;;;28.52;10.68;;;;;;;-1.95;74.03;98911.56;2258001;78;21721;-71
2021/01/16 11:00:15;;;;;;;26.80;9.80;;;;;;;-2.06;73.81;98924.94;2264824;78;21614;-73
2021/01/16 11:03:16;;;;;;;24.90;8.00;;;;;;;-2.22;73.57;98908.34;2266537;78;21586;-68
2021/01/16 11:06:18;;;;;;;26.93;9.75;;;;;;;-2.40;74.06;98907.20;2257809;78;21142;-70
2021/01/16 11:09:19;;;;;;;25.97;9.08;;;;;;;-2.56;74.64;98902.16;2262432;78;21115;-67
2021/01/16 11:12:21;;;;;;;28.40;9.03;;;;;;;-2.57;75.70;98893.19;2247515;79;21732;-70
2021/01/16 11:15:22;;;;;;;24.37;9.15;;;;;;;-2.62;75.40;98891.50;2269430;78;21705;-66
2021/01/16 11:18:23;;;;;;;29.07;10.40;;;;;;;-2.58;76.28;98886.36;2267201;78;21261;-67
2021/01/16 11:21:24;;;;;;;30.75;10.58;;;;;;;-2.46;75.52;98887.55;2247036;79;21783;-72
2021/01/16 11:24:25;;;;;;;30.05;10.90;;;;;;;-2.54;75.12;98894.44;2265456;78;21143;-65
2021/01/16 11:27:27;;;;;;;29.10;11.22;;;;;;;-2.53;75.49;98884.19;2247060;79;21280;-68
2021/01/16 11:30:28;;;;;;;29.82;9.70;;;;;;;-2.63;76.43;98888.94;2273956;78;21681;-65
2021/01/16 11:33:30;;;;;;;25.55;9.50;;;;;;;-2.70;77.26;98888.55;2247701;79;21142;-65
2021/01/16 11:36:31;;;;;;;26.52;9.53;;;;;;;-2.68;77.09;98885.12;2265572;78;21705;-66
2021/01/16 11:39:32;;;;;;;30.25;10.63;;;;;;;-2.60;77.12;98872.25;2233077;78;21153;-66
2021/01/16 11:42:33;;;;;;;25.12;9.20;;;;;;;-2.51;76.89;98877.75;2246415;78;21592;-69
2021/01/16 11:45:35;;;;;;;26.93;9.58;;;;;;;-2.48;76.09;98873.43;2266647;77;21103;-65
2021/01/16 11:48:36;;;;;;;28.53;9.63;;;;;;;-2.50;76.33;98879.44;2259435;78;21265;-66
2021/01/16 11:51:40;;;;;;;26.15;9.80;;;;;;;-2.56;76.38;98867.93;2255480;77;21551;-67
2021/01/16 11:54:42;;;;;;;27.70;10.43;;;;;;;-2.56;77.08;98862.35;2230964;77;21727;-72
2021/01/16 11:57:44;;;;;;;28.92;10.80;;;;;;;-2.59;77.26;98864.94;2251434;77;21579;-67
2021/01/16 12:00:45;;;;;;;31.15;11.53;;;;;;;-2.48;77.62;98850.75;2259776;77;21589;-75
2021/01/16 12:03:46;;;;;;;30.30;12.18;;;;;;;-2.41;76.92;98860.53;2251076;77;21149;-73
2021/01/16 12:06:48;;;;;;;28.20;9.93;;;;;;;-2.79;76.34;98852.24;2245542;77;21563;-68
2021/01/16 12:09:49;;;;;;;29.18;11.68;;;;;;;-2.79;76.34;98852.24;2236169;79;21584;-69
2021/01/16 12:12:50;;;;;;;31.23;12.10;;;;;;;-2.71;76.75;98865.05;2219711;79;21272;-67
2021/01/16 12:15:51;;;;;;;30.27;12.43;;;;;;;-2.80;76.16;98853.97;2225620;79;21276;-68
2021/01/16 12:18:53;;;;;;;31.12;13.03;;;;;;;-2.81;76.60;98844.55;2226485;79;21328;-72
2021/01/16 12:21:54;;;;;;;31.27;11.88;;;;;;;-2.85;76.85;98862.56;2280728;77;21391;-74
2021/01/16 12:24:55;;;;;;;30.25;10.32;;;;;;;-2.98;77.25;98841.25;2270713;77;21147;-70
2021/01/16 12:27:56;;;;;;;29.40;10.98;;;;;;;-3.20;77.26;98849.06;2286522;78;21567;-74
2021/01/16 12:30:57;;;;;;;28.67;9.58;;;;;;;-3.34;77.86;98836.73;2251721;77;21280;-70
2021/01/16 12:33:59;;;;;;;28.27;9.58;;;;;;;-3.52;78.12;98834.67;2268220;78;21260;-65
2021/01/16 12:37:00;;;;;;;27.55;9.75;;;;;;;-3.60;78.05;98851.80;2261835;78;21272;-71
2021/01/16 12:40:01;;;;;;;28.45;9.68;;;;;;;-3.64;78.75;98831.31;2271049;77;21141;-70
2021/01/16 12:43:02;;;;;;;23.47;7.78;;;;;;;-3.76;79.21;98839.45;2281561;77;21285;-69
2021/01/16 12:46:04;;;;;;;29.42;11.28;;;;;;;-3.86;79.09;98842.47;2276742;77;21333;-67
2021/01/16 12:49:05;;;;;;;25.08;8.78;;;;;;;-3.93;79.36;98835.66;2275397;78;21723;-71
2021/01/16 12:52:06;;;;;;;30.60;12.47;;;;;;;-3.95;78.91;98831.38;2257041;78;21114;-66
2021/01/16 12:55:07;;;;;;;30.15;11.55;;;;;;;-3.89;79.75;98832.23;2250414;77;21127;-69
2021/01/16 12:58:09;;;;;;;31.45;11.12;;;;;;;-3.76;79.31;98814.27;2285282;77;21273;-66
2021/01/16 13:01:11;;;;;;;;;;;;;;;-3.85;79.63;98818.96;2240466;79;21847;-70
2021/01/16 13:04:12;;;;;;;29.35;10.72;;;;;;;-3.86;79.18;98808.31;2230054;79;20237;-65
2021/01/16 13:07:14;;;;;;;29.82;10.53;;;;;;;-3.91;78.13;98810.86;2217546;79;21749;-68
2021/01/16 13:10:15;;;;;;;29.12;11.00;;;;;;;-3.90;78.44;98811.30;2244458;78;21710;-68
2021/01/16 13:13:16;;;;;;;25.88;8.58;;;;;;;-3.80;77.35;98804.87;2242391;79;21186;-64
2021/01/16 13:16:17;;;;;;;30.72;10.85;;;;;;;-3.80;76.62;98845.89;2240507;79;21728;-66
2021/01/16 13:19:18;;;;;;;24.92;9.38;;;;;;;-3.81;76.21;98810.41;2236344;79;21590;-66
2021/01/16 13:22:20;;;;;;;29.02;10.10;;;;;;;-3.83;75.92;98817.27;2231681;79;21720;-73
2021/01/16 13:25:21;;;;;;;27.93;8.93;;;;;;;-3.80;75.71;98806.16;2231793;79;21305;-68
2021/01/16 13:28:23;;;;;;;25.70;8.83;;;;;;;-3.82;75.50;98807.45;2244243;78;21742;-75
2021/01/16 13:31:24;;;;;;;24.92;8.05;;;;;;;-3.85;75.42;98803.58;2236644;79;21352;-74
2021/01/16 13:34:26;;;;;;;27.77;9.63;;;;;;;-3.94;75.19;98798.50;2250722;78;21331;-74
2021/01/16 13:37:28;;;;;;;26.52;7.33;;;;;;;-4.02;76.16;98793.41;2213864;79;21264;-73
2021/01/16 13:40:29;;;;;;;25.35;7.00;;;;;;;-4.09;75.17;98810.94;2243118;79;21146;-68
2021/01/16 13:43:31;;;;;;;25.97;7.80;;;;;;;-4.23;75.25;98801.55;2236211;79;21736;-68
2021/01/16 13:46:32;;;;;;;25.17;8.03;;;;;;;-4.30;75.65;98802.84;2252243;79;21318;-67
2021/01/16 13:49:33;;;;;;;23.40;7.42;;;;;;;-4.31;76.62;98781.52;2229201;79;21281;-65
2021/01/16 13:52:34;;;;;;;30.43;10.10;;;;;;;-4.34;76.98;98782.77;2243006;79;21728;-67
2021/01/16 13:55:36;;;;;;;30.15;10.20;;;;;;;-4.42;77.68;98780.68;2239034;79;21301;-66